sensor_id;sensor_type;location;lat;lon;timestamp;temperature;humidity
21019;DHT22;10667;51.056;3.732;2022-07-10T00:00:32;18.80;99.90
21019;DHT22;10667;51.056;3.732;2022-07-10T00:02:57;18.70;99.90
21019;DHT22;10667;51.056;3.732;2022-07-10T00:05:24;18.70;99.90
21019;DHT22;10667;51.056;3.732;2022-07-10T00:07:51;18.70;99.90
21019;DHT22;10667;51.056;3.732;2022-07-10T00:10:18;18.70;99.90
21019;DHT22;10667;51.056;3.732;2022-07-10T00:12:44;18.70;99.90
21019;DHT22;10667;51.056;3.732;2022-07-10T00:15:11;18.60;99.90
21019;DHT22;10667;51.056;3.732;2022-07-10T00:17:37;18.50;99.90
21019;DHT22;10667;51.056;3.732;2022-07-10T00:20:05;18.50;99.90
21019;DHT22;10667;51.056;3.732;2022-07-10T00:22:33;18.40;99.90
21019;DHT22;10667;51.056;3.732;2022-07-10T00:25:01;18.50;99.90
21019;DHT22;10667;51.056;3.732;2022-07-10T00:27:29;18.40;99.90
21019;DHT22;10667;51.056;3.732;2022-07-10T00:29:55;18.40;99.90
21019;DHT22;10667;51.056;3.732;2022-07-10T00:32:21;18.40;99.90
21019;DHT22;10667;51.056;3.732;2022-07-10T00:34:47;18.20;99.90
21019;DHT22;10667;51.056;3.732;2022-07-10T00:37:13;18.20;99.90
21019;DHT22;10667;51.056;3.732;2022-07-10T00:39:39;18.20;99.90
21019;DHT22;10667;51.056;3.732;2022-07-10T00:42:11;18.20;99.90
21019;DHT22;10667;51.056;3.732;2022-07-10T00:44:39;18.20;99.90
21019;DHT22;10667;51.056;3.732;2022-07-10T00:47:06;18.20;99.90
21019;DHT22;10667;51.056;3.732;2022-07-10T00:49:37;18.10;99.90
21019;DHT22;10667;51.056;3.732;2022-07-10T00:52:08;18.00;99.90
21019;DHT22;10667;51.056;3.732;2022-07-10T00:54:36;17.90;99.90
21019;DHT22;10667;51.056;3.732;2022-07-10T00:57:04;17.90;99.90
21019;DHT22;10667;51.056;3.732;2022-07-10T00:59:31;17.90;99.90
21019;DHT22;10667;51.056;3.732;2022-07-10T01:01:57;18.00;99.90
21019;DHT22;10667;51.056;3.732;2022-07-10T01:04:22;18.10;99.90
21019;DHT22;10667;51.056;3.732;2022-07-10T01:06:49;17.90;99.90
21019;DHT22;10667;51.056;3.732;2022-07-10T01:09:15;18.00;99.90
21019;DHT22;10667;51.056;3.732;2022-07-10T01:11:40;18.10;99.90
21019;DHT22;10667;51.056;3.732;2022-07-10T01:14:07;18.00;99.90
21019;DHT22;10667;51.056;3.732;2022-07-10T01:16:34;17.80;99.90
21019;DHT22;10667;51.056;3.732;2022-07-10T01:18:59;17.80;99.90
21019;DHT22;10667;51.056;3.732;2022-07-10T01:21:32;18.00;99.90
21019;DHT22;10667;51.056;3.732;2022-07-10T01:23:59;18.10;99.90
21019;DHT22;10667;51.056;3.732;2022-07-10T01:26:24;17.80;99.90
21019;DHT22;10667;51.056;3.732;2022-07-10T01:28:53;17.80;99.90
21019;DHT22;10667;51.056;3.732;2022-07-10T01:31:20;17.70;99.90
21019;DHT22;10667;51.056;3.732;2022-07-10T01:33:49;17.70;99.90
21019;DHT22;10667;51.056;3.732;2022-07-10T01:36:16;17.80;99.90
21019;DHT22;10667;51.056;3.732;2022-07-10T01:38:42;17.70;99.90
21019;DHT22;10667;51.056;3.732;2022-07-10T01:41:08;17.80;99.90
21019;DHT22;10667;51.056;3.732;2022-07-10T01:43:36;17.70;99.90
21019;DHT22;10667;51.056;3.732;2022-07-10T01:46:05;17.70;99.90
21019;DHT22;10667;51.056;3.732;2022-07-10T01:48:31;17.70;99.90
21019;DHT22;10667;51.056;3.732;2022-07-10T01:50:57;17.80;99.90
21019;DHT22;10667;51.056;3.732;2022-07-10T01:53:22;17.70;99.90
21019;DHT22;10667;51.056;3.732;2022-07-10T01:55:48;17.80;99.90
21019;DHT22;10667;51.056;3.732;2022-07-10T01:58:14;17.80;99.90
21019;DHT22;10667;51.056;3.732;2022-07-10T02:00:40;17.90;99.90
21019;DHT22;10667;51.056;3.732;2022-07-10T02:03:05;17.80;99.90
21019;DHT22;10667;51.056;3.732;2022-07-10T02:05:49;18.00;99.90
21019;DHT22;10667;51.056;3.732;2022-07-10T02:08:15;17.60;99.90
21019;DHT22;10667;51.056;3.732;2022-07-10T02:10:41;17.60;99.90
21019;DHT22;10667;51.056;3.732;2022-07-10T02:13:07;17.60;99.90
21019;DHT22;10667;51.056;3.732;2022-07-10T02:15:32;17.60;99.90
21019;DHT22;10667;51.056;3.732;2022-07-10T02:17:58;17.70;99.90
21019;DHT22;10667;51.056;3.732;2022-07-10T02:20:24;17.60;99.90
21019;DHT22;10667;51.056;3.732;2022-07-10T02:22:49;17.70;99.90
21019;DHT22;10667;51.056;3.732;2022-07-10T02:25:15;17.50;99.90
21019;DHT22;10667;51.056;3.732;2022-07-10T02:27:40;17.50;99.90
21019;DHT22;10667;51.056;3.732;2022-07-10T02:30:06;17.50;99.90
21019;DHT22;10667;51.056;3.732;2022-07-10T02:32:32;17.50;99.90
21019;DHT22;10667;51.056;3.732;2022-07-10T02:34:58;17.50;99.90
21019;DHT22;10667;51.056;3.732;2022-07-10T02:37:23;17.50;99.90
21019;DHT22;10667;51.056;3.732;2022-07-10T02:39:49;17.40;99.90
21019;DHT22;10667;51.056;3.732;2022-07-10T02:42:15;17.50;99.90
21019;DHT22;10667;51.056;3.732;2022-07-10T02:44:41;17.60;99.90
21019;DHT22;10667;51.056;3.732;2022-07-10T02:47:06;17.60;99.90
21019;DHT22;10667;51.056;3.732;2022-07-10T02:49:32;17.40;99.90
21019;DHT22;10667;51.056;3.732;2022-07-10T02:51:58;17.50;99.90
21019;DHT22;10667;51.056;3.732;2022-07-10T02:54:24;17.30;99.90
21019;DHT22;10667;51.056;3.732;2022-07-10T02:56:50;17.40;99.90
21019;DHT22;10667;51.056;3.732;2022-07-10T02:59:16;17.50;99.90
21019;DHT22;10667;51.056;3.732;2022-07-10T03:01:43;17.50;99.90
21019;DHT22;10667;51.056;3.732;2022-07-10T03:04:09;17.30;99.90
21019;DHT22;10667;51.056;3.732;2022-07-10T03:06:35;17.10;99.90
21019;DHT22;10667;51.056;3.732;2022-07-10T03:09:00;17.10;99.90
21019;DHT22;10667;51.056;3.732;2022-07-10T03:11:26;17.10;99.90
21019;DHT22;10667;51.056;3.732;2022-07-10T03:13:51;17.20;99.90
21019;DHT22;10667;51.056;3.732;2022-07-10T03:16:17;17.20;99.90
21019;DHT22;10667;51.056;3.732;2022-07-10T03:18:43;17.30;99.90
21019;DHT22;10667;51.056;3.732;2022-07-10T03:21:08;17.20;99.90
21019;DHT22;10667;51.056;3.732;2022-07-10T03:23:34;17.10;99.90
21019;DHT22;10667;51.056;3.732;2022-07-10T03:26:00;17.00;99.90
21019;DHT22;10667;51.056;3.732;2022-07-10T03:28:25;17.00;99.90
21019;DHT22;10667;51.056;3.732;2022-07-10T03:30:51;17.10;99.90
21019;DHT22;10667;51.056;3.732;2022-07-10T03:33:17;17.00;99.90
21019;DHT22;10667;51.056;3.732;2022-07-10T03:35:42;17.00;99.90
21019;DHT22;10667;51.056;3.732;2022-07-10T03:38:08;17.00;99.90
21019;DHT22;10667;51.056;3.732;2022-07-10T03:40:33;17.00;99.90
21019;DHT22;10667;51.056;3.732;2022-07-10T03:42:59;17.00;99.90
21019;DHT22;10667;51.056;3.732;2022-07-10T03:45:25;17.10;99.90
21019;DHT22;10667;51.056;3.732;2022-07-10T03:47:51;17.10;99.90
21019;DHT22;10667;51.056;3.732;2022-07-10T03:50:16;17.00;99.90
21019;DHT22;10667;51.056;3.732;2022-07-10T03:52:42;17.10;99.90
21019;DHT22;10667;51.056;3.732;2022-07-10T03:55:09;17.00;99.90
21019;DHT22;10667;51.056;3.732;2022-07-10T03:57:35;17.10;99.90
21019;DHT22;10667;51.056;3.732;2022-07-10T04:00:20;17.10;99.90
21019;DHT22;10667;51.056;3.732;2022-07-10T04:02:47;17.00;99.90
21019;DHT22;10667;51.056;3.732;2022-07-10T04:05:14;17.00;99.90
21019;DHT22;10667;51.056;3.732;2022-07-10T04:07:40;17.00;99.90
21019;DHT22;10667;51.056;3.732;2022-07-10T04:10:06;16.90;99.90
21019;DHT22;10667;51.056;3.732;2022-07-10T04:12:32;16.90;99.90
21019;DHT22;10667;51.056;3.732;2022-07-10T04:14:57;16.80;99.90
21019;DHT22;10667;51.056;3.732;2022-07-10T04:17:23;16.80;99.90
21019;DHT22;10667;51.056;3.732;2022-07-10T04:19:49;16.90;99.90
21019;DHT22;10667;51.056;3.732;2022-07-10T04:22:14;16.80;99.90
21019;DHT22;10667;51.056;3.732;2022-07-10T04:24:40;16.90;99.90
21019;DHT22;10667;51.056;3.732;2022-07-10T04:27:06;16.80;99.90
21019;DHT22;10667;51.056;3.732;2022-07-10T04:29:32;16.80;99.90
21019;DHT22;10667;51.056;3.732;2022-07-10T04:31:58;16.80;99.90
21019;DHT22;10667;51.056;3.732;2022-07-10T04:34:23;16.70;99.90
21019;DHT22;10667;51.056;3.732;2022-07-10T04:36:50;16.70;99.90
21019;DHT22;10667;51.056;3.732;2022-07-10T04:39:16;16.80;99.90
21019;DHT22;10667;51.056;3.732;2022-07-10T04:41:41;16.80;99.90
21019;DHT22;10667;51.056;3.732;2022-07-10T04:44:07;16.90;99.90
21019;DHT22;10667;51.056;3.732;2022-07-10T04:46:33;17.00;99.90
21019;DHT22;10667;51.056;3.732;2022-07-10T04:48:58;17.00;99.90
21019;DHT22;10667;51.056;3.732;2022-07-10T04:51:25;17.00;99.90
21019;DHT22;10667;51.056;3.732;2022-07-10T04:53:50;17.10;99.90
21019;DHT22;10667;51.056;3.732;2022-07-10T04:56:16;17.10;99.90
21019;DHT22;10667;51.056;3.732;2022-07-10T04:58:42;17.10;99.90
21019;DHT22;10667;51.056;3.732;2022-07-10T05:01:07;17.10;99.90
21019;DHT22;10667;51.056;3.732;2022-07-10T05:03:33;17.00;99.90
21019;DHT22;10667;51.056;3.732;2022-07-10T05:05:59;17.00;99.90
21019;DHT22;10667;51.056;3.732;2022-07-10T05:08:24;17.10;99.90
21019;DHT22;10667;51.056;3.732;2022-07-10T05:10:50;17.20;99.90
21019;DHT22;10667;51.056;3.732;2022-07-10T05:13:15;17.30;99.90
21019;DHT22;10667;51.056;3.732;2022-07-10T05:15:41;17.50;99.90
21019;DHT22;10667;51.056;3.732;2022-07-10T05:18:07;17.50;99.90
21019;DHT22;10667;51.056;3.732;2022-07-10T05:20:32;17.50;99.90
21019;DHT22;10667;51.056;3.732;2022-07-10T05:22:59;17.40;99.90
21019;DHT22;10667;51.056;3.732;2022-07-10T05:25:25;17.40;99.90
21019;DHT22;10667;51.056;3.732;2022-07-10T05:27:52;17.40;99.90
21019;DHT22;10667;51.056;3.732;2022-07-10T05:30:17;17.50;99.90
21019;DHT22;10667;51.056;3.732;2022-07-10T05:32:46;17.40;99.90
21019;DHT22;10667;51.056;3.732;2022-07-10T05:35:13;17.40;99.90
21019;DHT22;10667;51.056;3.732;2022-07-10T05:37:39;17.40;99.90
21019;DHT22;10667;51.056;3.732;2022-07-10T05:40:05;17.60;99.90
21019;DHT22;10667;51.056;3.732;2022-07-10T05:42:31;17.60;99.90
21019;DHT22;10667;51.056;3.732;2022-07-10T05:44:57;17.70;99.90
21019;DHT22;10667;51.056;3.732;2022-07-10T05:47:23;17.60;99.90
21019;DHT22;10667;51.056;3.732;2022-07-10T05:49:48;17.60;99.90
21019;DHT22;10667;51.056;3.732;2022-07-10T05:52:14;17.60;99.90
21019;DHT22;10667;51.056;3.732;2022-07-10T05:54:40;17.60;99.90
21019;DHT22;10667;51.056;3.732;2022-07-10T05:57:05;17.60;99.90
21019;DHT22;10667;51.056;3.732;2022-07-10T05:59:34;17.60;99.90
21019;DHT22;10667;51.056;3.732;2022-07-10T06:02:01;17.60;99.90
21019;DHT22;10667;51.056;3.732;2022-07-10T06:04:27;17.60;99.90
21019;DHT22;10667;51.056;3.732;2022-07-10T06:06:52;17.60;99.90
21019;DHT22;10667;51.056;3.732;2022-07-10T06:09:18;17.60;99.90
21019;DHT22;10667;51.056;3.732;2022-07-10T06:11:44;17.70;99.90
21019;DHT22;10667;51.056;3.732;2022-07-10T06:14:12;17.90;99.90
21019;DHT22;10667;51.056;3.732;2022-07-10T06:16:37;17.90;99.90
21019;DHT22;10667;51.056;3.732;2022-07-10T06:19:03;18.00;99.90
21019;DHT22;10667;51.056;3.732;2022-07-10T06:21:29;18.10;99.90
21019;DHT22;10667;51.056;3.732;2022-07-10T06:23:54;18.20;99.90
21019;DHT22;10667;51.056;3.732;2022-07-10T06:26:20;18.10;99.90
21019;DHT22;10667;51.056;3.732;2022-07-10T06:28:46;18.10;99.90
21019;DHT22;10667;51.056;3.732;2022-07-10T06:31:11;18.30;99.90
21019;DHT22;10667;51.056;3.732;2022-07-10T06:33:37;18.40;99.90
21019;DHT22;10667;51.056;3.732;2022-07-10T06:36:03;18.30;99.90
21019;DHT22;10667;51.056;3.732;2022-07-10T06:38:29;18.30;99.90
21019;DHT22;10667;51.056;3.732;2022-07-10T06:40:54;18.60;99.90
21019;DHT22;10667;51.056;3.732;2022-07-10T06:43:20;18.60;99.90
21019;DHT22;10667;51.056;3.732;2022-07-10T06:45:46;18.70;99.90
21019;DHT22;10667;51.056;3.732;2022-07-10T06:48:12;18.70;99.90
21019;DHT22;10667;51.056;3.732;2022-07-10T06:50:38;19.00;99.90
21019;DHT22;10667;51.056;3.732;2022-07-10T06:53:05;19.20;99.90
21019;DHT22;10667;51.056;3.732;2022-07-10T06:55:31;19.40;99.90
21019;DHT22;10667;51.056;3.732;2022-07-10T06:57:57;19.20;99.90
21019;DHT22;10667;51.056;3.732;2022-07-10T07:00:24;19.20;99.90
21019;DHT22;10667;51.056;3.732;2022-07-10T07:02:50;19.20;99.90
21019;DHT22;10667;51.056;3.732;2022-07-10T07:05:16;19.40;99.90
21019;DHT22;10667;51.056;3.732;2022-07-10T07:07:42;19.40;99.90
21019;DHT22;10667;51.056;3.732;2022-07-10T07:10:08;19.60;99.90
21019;DHT22;10667;51.056;3.732;2022-07-10T07:12:34;19.80;99.90
21019;DHT22;10667;51.056;3.732;2022-07-10T07:15:00;19.70;99.90
21019;DHT22;10667;51.056;3.732;2022-07-10T07:17:26;19.70;99.90
21019;DHT22;10667;51.056;3.732;2022-07-10T07:19:59;19.60;99.90
21019;DHT22;10667;51.056;3.732;2022-07-10T07:22:44;19.70;99.90
21019;DHT22;10667;51.056;3.732;2022-07-10T07:25:28;19.80;99.90
21019;DHT22;10667;51.056;3.732;2022-07-10T07:27:54;19.90;99.90
21019;DHT22;10667;51.056;3.732;2022-07-10T07:30:20;20.10;99.90
21019;DHT22;10667;51.056;3.732;2022-07-10T07:32:46;20.00;99.90
21019;DHT22;10667;51.056;3.732;2022-07-10T07:35:15;19.90;99.90
21019;DHT22;10667;51.056;3.732;2022-07-10T07:40:10;20.00;99.90
21019;DHT22;10667;51.056;3.732;2022-07-10T07:42:36;20.20;99.90
21019;DHT22;10667;51.056;3.732;2022-07-10T07:45:03;20.30;99.90
21019;DHT22;10667;51.056;3.732;2022-07-10T07:47:30;20.40;99.90
21019;DHT22;10667;51.056;3.732;2022-07-10T07:49:56;20.50;99.90
21019;DHT22;10667;51.056;3.732;2022-07-10T07:52:21;20.60;99.90
21019;DHT22;10667;51.056;3.732;2022-07-10T07:54:48;20.40;99.90
21019;DHT22;10667;51.056;3.732;2022-07-10T07:57:14;20.50;99.90
21019;DHT22;10667;51.056;3.732;2022-07-10T07:59:40;20.80;99.90
21019;DHT22;10667;51.056;3.732;2022-07-10T08:02:06;20.90;99.90
21019;DHT22;10667;51.056;3.732;2022-07-10T08:04:32;21.10;99.90
21019;DHT22;10667;51.056;3.732;2022-07-10T08:06:58;21.00;99.90
21019;DHT22;10667;51.056;3.732;2022-07-10T08:09:23;21.10;99.90
21019;DHT22;10667;51.056;3.732;2022-07-10T08:11:49;21.10;99.90
21019;DHT22;10667;51.056;3.732;2022-07-10T08:14:14;21.50;99.90
21019;DHT22;10667;51.056;3.732;2022-07-10T08:16:40;21.40;99.90
21019;DHT22;10667;51.056;3.732;2022-07-10T08:19:06;21.10;99.90
21019;DHT22;10667;51.056;3.732;2022-07-10T08:21:32;21.20;99.90
21019;DHT22;10667;51.056;3.732;2022-07-10T08:23:58;21.10;99.90
21019;DHT22;10667;51.056;3.732;2022-07-10T08:26:24;21.10;99.90
21019;DHT22;10667;51.056;3.732;2022-07-10T08:28:49;21.40;99.90
21019;DHT22;10667;51.056;3.732;2022-07-10T08:31:16;21.40;99.90
21019;DHT22;10667;51.056;3.732;2022-07-10T08:33:41;21.60;99.90
21019;DHT22;10667;51.056;3.732;2022-07-10T08:36:07;21.70;99.90
21019;DHT22;10667;51.056;3.732;2022-07-10T08:38:33;21.70;99.90
21019;DHT22;10667;51.056;3.732;2022-07-10T08:41:00;21.70;99.90
21019;DHT22;10667;51.056;3.732;2022-07-10T08:43:28;21.90;99.90
21019;DHT22;10667;51.056;3.732;2022-07-10T08:45:54;22.20;99.90
21019;DHT22;10667;51.056;3.732;2022-07-10T08:48:23;22.40;99.90
21019;DHT22;10667;51.056;3.732;2022-07-10T08:50:53;22.70;99.90
21019;DHT22;10667;51.056;3.732;2022-07-10T08:53:28;22.90;99.90
21019;DHT22;10667;51.056;3.732;2022-07-10T08:55:55;23.00;99.90
21019;DHT22;10667;51.056;3.732;2022-07-10T08:58:22;22.80;99.90
21019;DHT22;10667;51.056;3.732;2022-07-10T09:00:48;22.90;99.90
21019;DHT22;10667;51.056;3.732;2022-07-10T09:03:14;23.00;99.90
21019;DHT22;10667;51.056;3.732;2022-07-10T09:05:40;23.10;99.90
21019;DHT22;10667;51.056;3.732;2022-07-10T09:08:27;23.20;99.90
21019;DHT22;10667;51.056;3.732;2022-07-10T09:11:14;23.50;99.90
21019;DHT22;10667;51.056;3.732;2022-07-10T09:13:53;23.60;99.90
21019;DHT22;10667;51.056;3.732;2022-07-10T09:16:30;23.70;99.90
21019;DHT22;10667;51.056;3.732;2022-07-10T09:18:56;24.00;99.90
21019;DHT22;10667;51.056;3.732;2022-07-10T09:21:23;24.10;99.90
21019;DHT22;10667;51.056;3.732;2022-07-10T09:23:49;24.20;99.90
21019;DHT22;10667;51.056;3.732;2022-07-10T09:26:15;24.40;99.90
21019;DHT22;10667;51.056;3.732;2022-07-10T09:28:40;24.30;99.90
21019;DHT22;10667;51.056;3.732;2022-07-10T09:31:06;24.30;99.90
21019;DHT22;10667;51.056;3.732;2022-07-10T09:33:32;24.40;99.90
21019;DHT22;10667;51.056;3.732;2022-07-10T09:36:03;24.40;99.90
21019;DHT22;10667;51.056;3.732;2022-07-10T09:41:27;25.00;99.90
21019;DHT22;10667;51.056;3.732;2022-07-10T09:44:04;25.10;99.90
21019;DHT22;10667;51.056;3.732;2022-07-10T09:46:34;25.10;99.90
21019;DHT22;10667;51.056;3.732;2022-07-10T09:51:30;25.60;99.90
21019;DHT22;10667;51.056;3.732;2022-07-10T09:54:00;25.80;99.90
21019;DHT22;10667;51.056;3.732;2022-07-10T09:56:28;26.10;99.90
21019;DHT22;10667;51.056;3.732;2022-07-10T09:58:58;25.90;99.90
21019;DHT22;10667;51.056;3.732;2022-07-10T10:01:25;26.20;99.90
21019;DHT22;10667;51.056;3.732;2022-07-10T10:03:53;26.30;99.90
21019;DHT22;10667;51.056;3.732;2022-07-10T10:06:19;26.40;99.90
21019;DHT22;10667;51.056;3.732;2022-07-10T10:08:59;26.40;99.30
21019;DHT22;10667;51.056;3.732;2022-07-10T10:11:29;26.50;98.10
21019;DHT22;10667;51.056;3.732;2022-07-10T10:13:58;26.60;97.20
21019;DHT22;10667;51.056;3.732;2022-07-10T10:16:25;26.50;97.00
21019;DHT22;10667;51.056;3.732;2022-07-10T10:18:53;26.30;96.70
21019;DHT22;10667;51.056;3.732;2022-07-10T10:21:38;26.20;97.90
21019;DHT22;10667;51.056;3.732;2022-07-10T10:24:04;26.00;98.50
21019;DHT22;10667;51.056;3.732;2022-07-10T10:26:32;26.10;98.20
21019;DHT22;10667;51.056;3.732;2022-07-10T10:29:00;26.20;98.90
21019;DHT22;10667;51.056;3.732;2022-07-10T10:31:30;26.30;97.50
21019;DHT22;10667;51.056;3.732;2022-07-10T10:33:57;26.30;98.10
21019;DHT22;10667;51.056;3.732;2022-07-10T10:39:11;26.10;96.50
21019;DHT22;10667;51.056;3.732;2022-07-10T10:41:40;26.20;96.70
21019;DHT22;10667;51.056;3.732;2022-07-10T10:46:32;26.40;96.30
21019;DHT22;10667;51.056;3.732;2022-07-10T10:49:05;26.30;95.90
21019;DHT22;10667;51.056;3.732;2022-07-10T10:51:59;26.20;96.70
21019;DHT22;10667;51.056;3.732;2022-07-10T10:54:26;26.60;97.00
21019;DHT22;10667;51.056;3.732;2022-07-10T10:57:15;26.90;95.50
21019;DHT22;10667;51.056;3.732;2022-07-10T11:05:27;27.70;91.70
21019;DHT22;10667;51.056;3.732;2022-07-10T11:10:33;28.00;92.10
21019;DHT22;10667;51.056;3.732;2022-07-10T11:15:26;28.40;91.20
21019;DHT22;10667;51.056;3.732;2022-07-10T11:18:14;28.70;90.40
21019;DHT22;10667;51.056;3.732;2022-07-10T11:20:41;28.60;87.40
21019;DHT22;10667;51.056;3.732;2022-07-10T11:25:48;28.70;89.70
21019;DHT22;10667;51.056;3.732;2022-07-10T11:28:32;28.80;87.80
21019;DHT22;10667;51.056;3.732;2022-07-10T11:31:01;29.00;86.50
21019;DHT22;10667;51.056;3.732;2022-07-10T11:33:27;29.20;86.90
21019;DHT22;10667;51.056;3.732;2022-07-10T11:35:53;29.70;84.70
21019;DHT22;10667;51.056;3.732;2022-07-10T11:38:24;29.80;83.50
21019;DHT22;10667;51.056;3.732;2022-07-10T11:40:50;30.10;80.50
21019;DHT22;10667;51.056;3.732;2022-07-10T11:43:19;30.30;81.50
21019;DHT22;10667;51.056;3.732;2022-07-10T11:45:47;29.80;80.00
21019;DHT22;10667;51.056;3.732;2022-07-10T11:48:17;30.20;79.20
21019;DHT22;10667;51.056;3.732;2022-07-10T11:50:44;30.40;77.20
21019;DHT22;10667;51.056;3.732;2022-07-10T11:53:10;30.50;78.00
21019;DHT22;10667;51.056;3.732;2022-07-10T11:55:36;30.90;74.60
21019;DHT22;10667;51.056;3.732;2022-07-10T11:58:23;31.40;71.80
21019;DHT22;10667;51.056;3.732;2022-07-10T12:01:02;31.50;69.40
21019;DHT22;10667;51.056;3.732;2022-07-10T12:03:30;31.40;68.40
21019;DHT22;10667;51.056;3.732;2022-07-10T12:06:01;31.60;68.40
21019;DHT22;10667;51.056;3.732;2022-07-10T12:08:27;32.10;66.70
21019;DHT22;10667;51.056;3.732;2022-07-10T12:10:53;32.90;64.50
21019;DHT22;10667;51.056;3.732;2022-07-10T12:13:19;33.60;62.30
21019;DHT22;10667;51.056;3.732;2022-07-10T12:15:46;34.50;59.50
21019;DHT22;10667;51.056;3.732;2022-07-10T12:18:19;34.50;56.50
21019;DHT22;10667;51.056;3.732;2022-07-10T12:20:47;35.40;56.60
21019;DHT22;10667;51.056;3.732;2022-07-10T12:23:17;35.80;53.20
21019;DHT22;10667;51.056;3.732;2022-07-10T12:25:45;36.80;51.50
21019;DHT22;10667;51.056;3.732;2022-07-10T12:28:11;37.20;50.00
21019;DHT22;10667;51.056;3.732;2022-07-10T12:30:47;36.70;49.30
21019;DHT22;10667;51.056;3.732;2022-07-10T12:33:23;36.30;49.10
21019;DHT22;10667;51.056;3.732;2022-07-10T12:38:19;34.70;50.90
21019;DHT22;10667;51.056;3.732;2022-07-10T12:40:45;34.50;52.70
21019;DHT22;10667;51.056;3.732;2022-07-10T12:43:11;35.40;50.60
21019;DHT22;10667;51.056;3.732;2022-07-10T12:45:38;36.40;50.30
21019;DHT22;10667;51.056;3.732;2022-07-10T12:48:05;37.30;47.90
21019;DHT22;10667;51.056;3.732;2022-07-10T12:50:33;38.00;46.80
21019;DHT22;10667;51.056;3.732;2022-07-10T12:53:12;39.10;44.10
21019;DHT22;10667;51.056;3.732;2022-07-10T12:55:39;39.70;42.30
21019;DHT22;10667;51.056;3.732;2022-07-10T12:58:08;39.80;40.70
21019;DHT22;10667;51.056;3.732;2022-07-10T13:00:46;40.60;40.00
21019;DHT22;10667;51.056;3.732;2022-07-10T13:03:19;40.40;38.50
21019;DHT22;10667;51.056;3.732;2022-07-10T13:05:45;40.60;37.60
21019;DHT22;10667;51.056;3.732;2022-07-10T13:10:55;41.40;37.00
21019;DHT22;10667;51.056;3.732;2022-07-10T13:13:21;41.30;36.80
21019;DHT22;10667;51.056;3.732;2022-07-10T13:15:48;41.60;35.40
21019;DHT22;10667;51.056;3.732;2022-07-10T13:18:23;41.50;35.70
21019;DHT22;10667;51.056;3.732;2022-07-10T13:20:53;41.90;34.10
21019;DHT22;10667;51.056;3.732;2022-07-10T13:23:20;41.90;34.00
21019;DHT22;10667;51.056;3.732;2022-07-10T13:25:53;41.40;34.70
21019;DHT22;10667;51.056;3.732;2022-07-10T13:28:20;42.00;34.30
21019;DHT22;10667;51.056;3.732;2022-07-10T13:30:45;42.50;33.20
21019;DHT22;10667;51.056;3.732;2022-07-10T13:33:12;43.10;32.40
21019;DHT22;10667;51.056;3.732;2022-07-10T13:35:38;43.40;32.00
21019;DHT22;10667;51.056;3.732;2022-07-10T13:38:04;43.40;30.60
21019;DHT22;10667;51.056;3.732;2022-07-10T13:40:32;43.50;30.80
21019;DHT22;10667;51.056;3.732;2022-07-10T13:42:59;43.50;31.20
21019;DHT22;10667;51.056;3.732;2022-07-10T13:45:25;43.20;31.20
21019;DHT22;10667;51.056;3.732;2022-07-10T13:47:55;43.80;31.00
21019;DHT22;10667;51.056;3.732;2022-07-10T13:50:21;43.30;31.60
21019;DHT22;10667;51.056;3.732;2022-07-10T13:52:48;42.80;31.40
21019;DHT22;10667;51.056;3.732;2022-07-10T13:55:14;43.20;30.20
21019;DHT22;10667;51.056;3.732;2022-07-10T13:57:39;44.00;29.90
21019;DHT22;10667;51.056;3.732;2022-07-10T14:00:06;43.60;29.60
21019;DHT22;10667;51.056;3.732;2022-07-10T14:02:33;43.80;30.20
21019;DHT22;10667;51.056;3.732;2022-07-10T14:04:59;43.60;30.00
21019;DHT22;10667;51.056;3.732;2022-07-10T14:07:25;43.50;30.00
21019;DHT22;10667;51.056;3.732;2022-07-10T14:09:51;43.20;31.00
21019;DHT22;10667;51.056;3.732;2022-07-10T14:12:16;43.40;30.00
21019;DHT22;10667;51.056;3.732;2022-07-10T14:14:42;43.80;29.50
21019;DHT22;10667;51.056;3.732;2022-07-10T14:17:08;43.60;30.00
21019;DHT22;10667;51.056;3.732;2022-07-10T14:19:34;44.00;28.90
21019;DHT22;10667;51.056;3.732;2022-07-10T14:22:00;44.10;29.10
21019;DHT22;10667;51.056;3.732;2022-07-10T14:24:26;44.30;29.00
21019;DHT22;10667;51.056;3.732;2022-07-10T14:26:52;44.90;28.90
21019;DHT22;10667;51.056;3.732;2022-07-10T14:29:19;44.90;28.10
21019;DHT22;10667;51.056;3.732;2022-07-10T14:31:45;45.10;28.00
21019;DHT22;10667;51.056;3.732;2022-07-10T14:34:13;44.80;27.90
21019;DHT22;10667;51.056;3.732;2022-07-10T14:36:39;44.80;27.70
21019;DHT22;10667;51.056;3.732;2022-07-10T14:39:05;44.80;28.90
21019;DHT22;10667;51.056;3.732;2022-07-10T14:41:30;44.90;27.80
21019;DHT22;10667;51.056;3.732;2022-07-10T14:43:56;44.90;27.50
21019;DHT22;10667;51.056;3.732;2022-07-10T14:46:22;45.30;26.90
21019;DHT22;10667;51.056;3.732;2022-07-10T14:48:47;45.20;26.80
21019;DHT22;10667;51.056;3.732;2022-07-10T14:51:13;44.90;27.00
21019;DHT22;10667;51.056;3.732;2022-07-10T14:53:40;45.00;27.20
21019;DHT22;10667;51.056;3.732;2022-07-10T14:56:07;45.10;27.30
21019;DHT22;10667;51.056;3.732;2022-07-10T14:58:33;45.30;27.70
21019;DHT22;10667;51.056;3.732;2022-07-10T15:00:59;45.60;28.70
21019;DHT22;10667;51.056;3.732;2022-07-10T15:03:26;46.10;26.40
21019;DHT22;10667;51.056;3.732;2022-07-10T15:05:51;46.30;26.10
21019;DHT22;10667;51.056;3.732;2022-07-10T15:08:21;45.80;26.70
21019;DHT22;10667;51.056;3.732;2022-07-10T15:10:48;46.10;26.40
21019;DHT22;10667;51.056;3.732;2022-07-10T15:13:14;46.10;25.60
21019;DHT22;10667;51.056;3.732;2022-07-10T15:15:39;46.30;25.60
21019;DHT22;10667;51.056;3.732;2022-07-10T15:18:06;46.60;25.60
21019;DHT22;10667;51.056;3.732;2022-07-10T15:20:31;45.40;26.50
21019;DHT22;10667;51.056;3.732;2022-07-10T15:22:57;45.30;26.20
21019;DHT22;10667;51.056;3.732;2022-07-10T15:25:23;45.60;26.00
21019;DHT22;10667;51.056;3.732;2022-07-10T15:27:50;45.50;25.80
21019;DHT22;10667;51.056;3.732;2022-07-10T15:30:16;45.90;25.90
21019;DHT22;10667;51.056;3.732;2022-07-10T15:32:42;45.90;26.30
21019;DHT22;10667;51.056;3.732;2022-07-10T15:35:08;45.80;25.90
21019;DHT22;10667;51.056;3.732;2022-07-10T15:37:34;45.50;25.70
21019;DHT22;10667;51.056;3.732;2022-07-10T15:40:00;45.40;25.90
21019;DHT22;10667;51.056;3.732;2022-07-10T15:42:25;45.50;25.80
21019;DHT22;10667;51.056;3.732;2022-07-10T15:44:51;45.00;25.90
21019;DHT22;10667;51.056;3.732;2022-07-10T15:47:17;44.60;26.40
21019;DHT22;10667;51.056;3.732;2022-07-10T15:49:43;45.00;26.70
21019;DHT22;10667;51.056;3.732;2022-07-10T15:52:08;44.80;25.70
21019;DHT22;10667;51.056;3.732;2022-07-10T15:54:34;44.60;25.70
21019;DHT22;10667;51.056;3.732;2022-07-10T15:57:00;44.60;26.10
21019;DHT22;10667;51.056;3.732;2022-07-10T15:59:27;44.70;27.00
21019;DHT22;10667;51.056;3.732;2022-07-10T16:01:55;44.70;26.90